Time;durP1;ratioP1;P1;durP2;ratioP2;P2;SDS_P1;SDS_P2;PMS_P1;PMS_P2;Temp;Humidity;BMP_temperature;BMP_pressure;BME280_temperature;BME280_humidity;BME280_pressure;Samples;Min_cycle;Max_cycle;Signal;HPM_P1;HPM_P2
2024/01/28 00:02:21;;;;;;;16.02;8.60;;;2.10;99.90;;;;;;5068106;28;20059;-61
2024/01/28 00:04:48;;;;;;;12.52;7.97;;;2.10;99.90;;;;;;5068320;28;20144;-62
2024/01/28 00:07:14;;;;;;;14.20;9.20;;;2.30;99.90;;;;;;5067461;28;20048;-62
2024/01/28 00:09:42;;;;;;;14.70;7.78;;;2.20;99.90;;;;;;5066937;28;20048;-64
2024/01/28 00:12:10;;;;;;;12.27;7.57;;;2.10;99.90;;;;;;5067331;28;20048;-62
2024/01/28 00:14:37;;;;;;;12.80;7.63;;;2.20;99.90;;;;;;5067836;28;20052;-63
2024/01/28 00:17:04;;;;;;;16.50;7.80;;;2.10;99.90;;;;;;5066562;28;20048;-63
2024/01/28 00:19:32;;;;;;;12.50;7.50;;;2.10;99.90;;;;;;5050393;28;20471;-63
2024/01/28 00:21:58;;;;;;;14.43;7.38;;;2.00;99.90;;;;;;5066958;28;20140;-63
2024/01/28 00:24:27;;;;;;;12.07;7.82;;;1.80;99.90;;;;;;5066753;28;20460;-61
2024/01/28 00:26:54;;;;;;;15.23;7.03;;;1.80;99.90;;;;;;5050097;28;20465;-62
2024/01/28 00:29:28;;;;;;;15.02;7.65;;;1.80;99.90;;;;;;5066739;28;20062;-62
2024/01/28 00:31:56;;;;;;;15.55;8.13;;;1.80;99.90;;;;;;5066935;28;20048;-63
2024/01/28 00:34:22;;;;;;;14.18;7.68;;;1.90;99.90;;;;;;5067924;28;20119;-62
2024/01/28 00:36:49;;;;;;;15.02;8.73;;;1.80;99.90;;;;;;5066746;28;20120;-62
2024/01/28 00:39:15;;;;;;;11.50;7.65;;;1.70;99.90;;;;;;5050250;28;20053;-62
2024/01/28 00:41:42;;;;;;;11.02;8.45;;;1.70;99.90;;;;;;5048267;28;20057;-62
2024/01/28 00:44:08;;;;;;;12.60;7.80;;;1.70;99.90;;;;;;5047135;28;20068;-63
2024/01/28 00:46:34;;;;;;;13.85;8.45;;;1.60;99.90;;;;;;5048379;28;20057;-63
2024/01/28 00:49:04;;;;;;;14.52;8.25;;;1.60;99.90;;;;;;5063615;28;20078;-63
2024/01/28 00:51:33;;;;;;;17.67;8.85;;;1.70;99.90;;;;;;5067856;28;20068;-63
2024/01/28 00:53:59;;;;;;;16.00;7.82;;;1.70;99.90;;;;;;5068096;28;20438;-61
2024/01/28 00:56:26;;;;;;;16.83;7.43;;;1.70;99.90;;;;;;5069635;28;20048;-63
2024/01/28 00:58:52;;;;;;;13.38;8.32;;;1.70;99.90;;;;;;5055035;28;20079;-64
2024/01/28 01:01:19;;;;;;;15.13;8.18;;;1.70;99.90;;;;;;5048342;28;20462;-63
2024/01/28 01:03:46;;;;;;;14.18;8.50;;;1.60;99.90;;;;;;5032215;28;20057;-62
2024/01/28 01:06:12;;;;;;;12.20;7.47;;;1.80;99.90;;;;;;5048710;28;20119;-63
2024/01/28 01:08:38;;;;;;;14.80;8.32;;;1.70;99.90;;;;;;5061391;28;20109;-63
2024/01/28 01:11:06;;;;;;;12.52;8.10;;;1.80;99.90;;;;;;5069178;28;20460;-63
2024/01/28 01:13:35;;;;;;;14.65;8.88;;;1.70;99.90;;;;;;5069197;28;20385;-62
2024/01/28 01:16:01;;;;;;;13.48;6.90;;;1.80;99.90;;;;;;5069318;28;20380;-62
2024/01/28 01:18:28;;;;;;;12.05;7.22;;;1.90;99.90;;;;;;5068218;28;20056;-63
2024/01/28 01:20:55;;;;;;;15.77;8.00;;;1.80;99.90;;;;;;5069398;28;20056;-63
2024/01/28 01:23:22;;;;;;;15.80;8.30;;;1.70;99.90;;;;;;5069339;28;20274;-62
2024/01/28 01:25:48;;;;;;;15.88;7.93;;;1.80;99.90;;;;;;5069031;28;20059;-62
2024/01/28 01:28:15;;;;;;;13.65;7.45;;;1.70;99.90;;;;;;5058788;28;20588;-62
2024/01/28 01:30:42;;;;;;;15.65;6.97;;;1.70;99.90;;;;;;5049662;28;20136;-62
2024/01/28 01:33:08;;;;;;;14.60;7.18;;;1.60;99.90;;;;;;5049535;28;20053;-63
2024/01/28 01:35:35;;;;;;;16.50;7.38;;;1.70;99.90;;;;;;5047698;28;20383;-63
2024/01/28 01:38:01;;;;;;;14.70;7.97;;;1.70;99.90;;;;;;5038632;28;20079;-63
2024/01/28 01:40:27;;;;;;;13.98;8.20;;;1.60;99.90;;;;;;5068005;28;20311;-63
2024/01/28 01:42:53;;;;;;;14.07;7.20;;;1.60;99.90;;;;;;5072542;28;20063;-62
2024/01/28 01:45:20;;;;;;;12.63;7.10;;;1.70;99.90;;;;;;5072586;28;20048;-63
2024/01/28 01:47:46;;;;;;;14.75;7.85;;;1.70;99.90;;;;;;5071720;28;20082;-62
2024/01/28 01:50:13;;;;;;;15.00;8.70;;;1.50;99.90;;;;;;5072648;28;20334;-62
2024/01/28 01:52:42;;;;;;;11.73;8.43;;;1.80;99.90;;;;;;5072670;28;20049;-62
2024/01/28 01:55:09;;;;;;;15.23;7.55;;;1.80;99.90;;;;;;5072049;28;20056;-62
2024/01/28 01:57:38;;;;;;;12.90;7.70;;;1.70;99.90;;;;;;5067372;28;20444;-62
2024/01/28 02:00:06;;;;;;;17.63;7.53;;;1.60;99.90;;;;;;5053158;28;20049;-62
2024/01/28 02:02:33;;;;;;;12.93;7.25;;;1.80;99.90;;;;;;5066141;28;20061;-63
2024/01/28 02:04:59;;;;;;;16.35;7.78;;;1.60;99.90;;;;;;5071853;28;20055;-62
2024/01/28 02:07:26;;;;;;;15.90;7.38;;;1.70;99.90;;;;;;5068138;28;20870;-62
2024/01/28 02:09:52;;;;;;;12.65;7.70;;;1.60;99.90;;;;;;5052075;28;20041;-63
2024/01/28 02:12:19;;;;;;;12.00;7.40;;;1.70;99.90;;;;;;5050991;28;20044;-62
2024/01/28 02:14:46;;;;;;;13.90;7.47;;;1.60;99.90;;;;;;5050824;28;20064;-62
2024/01/28 02:17:13;;;;;;;16.20;7.40;;;1.60;99.90;;;;;;5051194;28;20052;-62
2024/01/28 02:19:39;;;;;;;13.98;8.32;;;1.60;99.90;;;;;;5051996;28;20115;-62
2024/01/28 02:22:06;;;;;;;13.93;8.00;;;1.50;99.90;;;;;;5050459;28;20777;-63
2024/01/28 02:24:32;;;;;;;13.88;6.93;;;1.70;99.90;;;;;;5051883;28;20063;-62
2024/01/28 02:26:59;;;;;;;15.77;8.52;;;1.60;99.90;;;;;;5051948;28;20044;-61
2024/01/28 02:29:25;;;;;;;12.73;7.43;;;1.60;99.90;;;;;;5069842;28;20049;-62
2024/01/28 02:31:51;;;;;;;15.55;7.72;;;1.50;99.90;;;;;;5071947;28;20119;-63
2024/01/28 02:34:18;;;;;;;14.73;7.45;;;1.70;99.90;;;;;;5071018;28;20452;-64
2024/01/28 02:36:45;;;;;;;13.45;8.10;;;1.70;99.90;;;;;;5070477;28;20044;-62
2024/01/28 02:39:11;;;;;;;17.02;8.27;;;1.50;99.90;;;;;;5072700;28;20044;-63
2024/01/28 02:41:38;;;;;;;16.58;8.10;;;1.50;99.90;;;;;;5071131;28;20055;-61
2024/01/28 02:44:04;;;;;;;13.98;7.85;;;1.60;99.90;;;;;;5071755;28;20045;-63
2024/01/28 02:46:30;;;;;;;15.73;8.73;;;1.50;99.90;;;;;;5072064;28;20131;-62
2024/01/28 02:48:56;;;;;;;14.30;7.30;;;1.60;99.90;;;;;;5071399;28;20044;-62
2024/01/28 02:51:23;;;;;;;11.38;7.85;;;1.60;99.90;;;;;;5071551;28;20412;-63
2024/01/28 02:53:49;;;;;;;16.63;8.13;;;1.70;99.90;;;;;;5071740;28;20044;-62
2024/01/28 02:56:15;;;;;;;13.90;7.90;;;1.50;99.90;;;;;;5071601;28;20473;-64
2024/01/28 02:58:42;;;;;;;11.95;8.45;;;1.60;99.90;;;;;;5070141;28;20478;-62
2024/01/28 03:01:08;;;;;;;16.75;8.55;;;1.60;99.90;;;;;;5070977;28;20045;-64
2024/01/28 03:03:35;;;;;;;17.48;9.00;;;1.70;99.90;;;;;;5070932;28;20328;-62
2024/01/28 03:06:01;;;;;;;14.90;9.45;;;1.70;99.90;;;;;;5071013;28;20060;-62
2024/01/28 03:08:30;;;;;;;16.25;9.43;;;1.70;99.90;;;;;;5060085;28;20040;-63
2024/01/28 03:10:56;;;;;;;12.05;8.35;;;1.70;99.90;;;;;;5051010;28;20041;-63
2024/01/28 03:13:22;;;;;;;14.10;8.88;;;1.80;99.90;;;;;;5050731;28;20053;-63
2024/01/28 03:15:50;;;;;;;15.40;8.70;;;1.60;99.90;;;;;;5050359;28;20473;-63
2024/01/28 03:18:17;;;;;;;18.85;8.82;;;1.60;99.90;;;;;;5059198;28;20052;-63
2024/01/28 03:20:43;;;;;;;14.63;9.18;;;1.50;99.90;;;;;;5070861;28;20527;-63
2024/01/28 03:23:10;;;;;;;13.73;7.93;;;1.70;99.90;;;;;;5071030;28;20057;-62
2024/01/28 03:25:36;;;;;;;14.90;8.38;;;1.60;99.90;;;;;;5069029;28;20064;-62
2024/01/28 03:28:03;;;;;;;11.73;8.63;;;1.70;99.90;;;;;;5068793;28;20040;-64
2024/01/28 03:30:29;;;;;;;14.15;8.65;;;1.50;99.90;;;;;;5070580;28;20047;-62
2024/01/28 03:32:56;;;;;;;15.23;8.73;;;1.50;99.90;;;;;;5072225;28;20082;-62
2024/01/28 03:35:22;;;;;;;13.65;7.82;;;1.50;99.90;;;;;;5071671;28;20169;-64
2024/01/28 03:37:48;;;;;;;12.18;8.13;;;1.60;99.90;;;;;;5067294;28;20045;-63
2024/01/28 03:40:16;;;;;;;11.57;7.70;;;1.40;99.90;;;;;;5050652;28;20048;-62
2024/01/28 03:42:42;;;;;;;15.65;7.93;;;1.50;99.90;;;;;;5052047;28;20057;-62
2024/01/28 03:45:09;;;;;;;14.65;8.38;;;1.50;99.90;;;;;;5050683;28;20056;-62
2024/01/28 03:47:36;;;;;;;16.13;7.88;;;1.40;99.90;;;;;;5054167;28;20084;-62
2024/01/28 03:50:04;;;;;;;13.23;8.30;;;1.40;99.90;;;;;;5071102;28;20052;-62
2024/01/28 03:52:35;;;;;;;13.98;8.20;;;1.50;99.90;;;;;;5070631;28;20044;-63
2024/01/28 03:55:01;;;;;;;14.73;8.30;;;1.50;99.90;;;;;;5068779;28;20388;-63
2024/01/28 03:57:28;;;;;;;15.40;8.15;;;1.40;99.90;;;;;;5068657;28;20662;-62
2024/01/28 03:59:55;;;;;;;14.85;8.23;;;1.40;99.90;;;;;;5050305;28;20059;-63
2024/01/28 04:02:22;;;;;;;14.10;8.57;;;1.40;99.90;;;;;;5050039;28;20049;-61
2024/01/28 04:04:49;;;;;;;14.82;8.25;;;1.30;99.90;;;;;;5049109;28;20064;-62
2024/01/28 04:07:15;;;;;;;14.80;8.40;;;1.40;99.90;;;;;;5049674;28;20045;-62
2024/01/28 04:09:41;;;;;;;12.07;7.75;;;1.40;99.90;;;;;;5069129;28;20639;-63
2024/01/28 04:12:10;;;;;;;17.63;7.72;;;1.40;99.90;;;;;;5070021;28;20055;-63
2024/01/28 04:14:36;;;;;;;14.77;7.88;;;1.20;99.90;;;;;;5069566;28;20091;-62
2024/01/28 04:17:02;;;;;;;15.60;8.05;;;1.20;99.90;;;;;;5070088;28;20045;-63
2024/01/28 04:19:29;;;;;;;15.02;8.77;;;1.10;99.90;;;;;;5051748;28;20385;-63
2024/01/28 04:21:55;;;;;;;15.02;8.63;;;1.30;99.90;;;;;;5052641;28;20392;-62
2024/01/28 04:24:21;;;;;;;15.50;8.30;;;1.10;99.90;;;;;;5067987;28;20048;-62
2024/01/28 04:26:49;;;;;;;18.02;8.68;;;1.10;99.90;;;;;;5068569;28;20045;-62
2024/01/28 04:29:15;;;;;;;12.23;7.90;;;1.10;99.90;;;;;;5053930;28;20057;-63
2024/01/28 04:31:43;;;;;;;15.13;7.78;;;1.10;99.90;;;;;;5049865;28;20049;-63
2024/01/28 04:34:10;;;;;;;13.68;8.18;;;1.10;99.90;;;;;;5049175;28;20045;-62
2024/01/28 04:36:36;;;;;;;11.00;7.88;;;1.10;99.90;;;;;;5048577;28;20075;-63
2024/01/28 04:39:03;;;;;;;14.55;8.07;;;1.00;99.90;;;;;;5049994;28;20479;-62
2024/01/28 04:41:29;;;;;;;12.82;8.68;;;1.00;99.90;;;;;;5049720;28;20155;-62
2024/01/28 04:43:56;;;;;;;21.80;8.82;;;0.90;99.90;;;;;;5048534;28;20057;-63
2024/01/28 04:46:22;;;;;;;18.52;8.88;;;1.00;99.90;;;;;;5049654;28;20464;-63
2024/01/28 04:48:49;;;;;;;14.60;7.78;;;1.00;99.90;;;;;;5062081;28;20102;-62
2024/01/28 04:51:15;;;;;;;14.82;8.57;;;0.80;99.90;;;;;;5069830;28;20417;-63
2024/01/28 04:53:42;;;;;;;14.07;7.97;;;0.90;99.90;;;;;;5068417;28;20064;-62
2024/01/28 04:56:11;;;;;;;13.52;7.53;;;0.80;99.90;;;;;;5069656;28;20424;-63
2024/01/28 04:58:37;;;;;;;15.70;9.18;;;0.90;99.90;;;;;;5057922;28;20091;-62
2024/01/28 05:01:04;;;;;;;14.05;8.05;;;0.80;99.90;;;;;;5049329;28;20315;-62
2024/01/28 05:03:30;;;;;;;17.17;8.52;;;0.80;99.90;;;;;;5047690;28;20053;-63
2024/01/28 05:05:57;;;;;;;16.33;7.93;;;0.80;99.90;;;;;;5049324;28;20380;-62
2024/01/28 05:08:26;;;;;;;17.30;8.75;;;0.80;99.90;;;;;;5057791;28;20094;-62
2024/01/28 05:10:52;;;;;;;18.45;8.15;;;0.90;99.90;;;;;;5069311;28;20064;-62
2024/01/28 05:13:19;;;;;;;15.98;8.15;;;0.90;99.90;;;;;;5069134;28;20044;-62
2024/01/28 05:15:46;;;;;;;15.48;8.35;;;0.80;99.90;;;;;;5071069;28;20263;-62
2024/01/28 05:18:12;;;;;;;15.05;9.13;;;0.80;99.90;;;;;;5072151;28;20432;-63
2024/01/28 05:20:38;;;;;;;12.85;8.00;;;0.80;99.90;;;;;;5073370;28;20052;-62
2024/01/28 05:23:05;;;;;;;13.32;7.68;;;0.90;99.90;;;;;;5072779;28;20063;-63
2024/01/28 05:25:32;;;;;;;14.07;7.82;;;0.90;99.90;;;;;;5072794;28;20270;-61
2024/01/28 05:27:59;;;;;;;13.60;8.02;;;0.80;99.90;;;;;;5071062;28;20045;-62
2024/01/28 05:30:30;;;;;;;13.55;7.72;;;0.90;99.90;;;;;;5072282;28;20452;-63
2024/01/28 05:32:58;;;;;;;14.50;7.80;;;0.90;99.90;;;;;;5072985;28;20044;-62
2024/01/28 05:35:24;;;;;;;13.93;8.13;;;1.00;99.90;;;;;;5072533;28;20044;-62
2024/01/28 05:37:51;;;;;;;14.10;8.77;;;1.00;99.90;;;;;;5068991;28;20060;-61
2024/01/28 05:40:18;;;;;;;15.65;9.02;;;1.10;99.90;;;;;;5052634;28;20063;-61
2024/01/28 05:42:44;;;;;;;15.65;8.68;;;1.10;99.90;;;;;;5052768;28;20049;-63
2024/01/28 05:45:11;;;;;;;13.93;8.05;;;0.80;99.90;;;;;;5051405;28;20060;-63
2024/01/28 05:47:37;;;;;;;14.15;8.65;;;0.90;99.90;;;;;;5053990;28;20303;-62
2024/01/28 05:50:04;;;;;;;15.88;8.38;;;0.80;99.90;;;;;;5072481;28;20060;-61
2024/01/28 05:52:30;;;;;;;16.08;8.75;;;0.80;99.90;;;;;;5071379;28;20049;-62
2024/01/28 05:54:56;;;;;;;15.20;8.02;;;0.80;99.90;;;;;;5071751;28;20495;-62
2024/01/28 05:57:23;;;;;;;13.68;7.80;;;0.90;99.90;;;;;;5072249;28;20370;-61
2024/01/28 05:59:49;;;;;;;14.10;7.97;;;0.90;99.90;;;;;;5072222;28;20461;-62
2024/01/28 06:02:15;;;;;;;12.95;7.72;;;0.90;99.90;;;;;;5072051;28;20055;-62
2024/01/28 06:04:43;;;;;;;12.55;8.27;;;0.70;99.90;;;;;;5070990;28;20555;-61
2024/01/28 06:07:09;;;;;;;13.82;7.95;;;0.90;99.90;;;;;;5070600;28;20428;-62
2024/01/28 06:09:37;;;;;;;13.05;7.70;;;0.90;99.90;;;;;;5071009;28;20063;-63
2024/01/28 06:12:03;;;;;;;16.20;8.45;;;0.80;99.90;;;;;;5065393;28;20037;-63
2024/01/28 06:14:30;;;;;;;15.15;7.78;;;0.70;99.90;;;;;;5051789;28;20057;-61
2024/01/28 06:16:56;;;;;;;15.82;7.30;;;0.70;99.90;;;;;;5052299;28;20048;-62
2024/01/28 06:19:22;;;;;;;14.10;7.55;;;0.60;99.90;;;;;;5051281;28;20072;-63
2024/01/28 06:21:51;;;;;;;13.85;7.50;;;0.60;99.90;;;;;;5052126;28;20052;-63
2024/01/28 06:24:18;;;;;;;12.73;7.80;;;0.60;99.90;;;;;;5050713;28;20055;-62
2024/01/28 06:26:44;;;;;;;12.85;8.13;;;0.60;99.90;;;;;;5066823;28;20395;-62
2024/01/28 06:29:11;;;;;;;16.13;9.23;;;0.70;99.90;;;;;;5069905;28;20048;-62
2024/01/28 06:31:37;;;;;;;14.02;7.85;;;0.60;99.90;;;;;;5070612;28;20041;-62
2024/01/28 06:34:04;;;;;;;14.18;7.20;;;0.60;99.90;;;;;;5071156;28;20059;-63
2024/01/28 06:36:30;;;;;;;13.00;7.53;;;0.60;99.90;;;;;;5070054;28;20040;-62
2024/01/28 06:38:57;;;;;;;16.75;8.13;;;0.60;99.90;;;;;;5069294;28;20048;-62
2024/01/28 06:41:24;;;;;;;14.30;7.97;;;0.50;99.90;;;;;;5071195;28;20579;-61
2024/01/28 06:43:52;;;;;;;;;;;0.40;99.90;;;;;;5070772;28;20040;-62
2024/01/28 06:46:19;;;;;;;13.20;7.45;;;0.50;99.90;;;;;;5069321;28;19936;-61
2024/01/28 06:48:46;;;;;;;15.70;7.90;;;0.50;99.90;;;;;;5068844;28;20036;-63
2024/01/28 06:51:12;;;;;;;12.63;7.90;;;0.50;99.90;;;;;;5069899;28;20051;-62
2024/01/28 06:53:41;;;;;;;12.90;7.43;;;0.60;99.90;;;;;;5070646;28;20041;-62
2024/01/28 06:56:07;;;;;;;13.63;7.78;;;0.40;99.90;;;;;;5070763;28;20052;-62
2024/01/28 06:58:33;;;;;;;9.98;6.95;;;0.50;99.90;;;;;;5069691;28;20048;-62
2024/01/28 07:00:59;;;;;;;13.75;7.13;;;0.50;99.90;;;;;;5072011;28;20045;-61
2024/01/28 07:03:26;;;;;;;;;;;0.50;99.90;;;;;;5072912;28;20063;-63
2024/01/28 07:05:52;;;;;;;11.10;7.07;;;0.50;99.90;;;;;;5072101;28;20010;-63
2024/01/28 07:08:18;;;;;;;;;;;0.30;99.90;;;;;;5072190;28;20055;-62
2024/01/28 07:10:44;;;;;;;11.15;7.00;;;0.50;99.90;;;;;;5071961;28;19921;-62
2024/01/28 07:13:11;;;;;;;;;;;0.50;99.90;;;;;;5072077;28;20056;-62
2024/01/28 07:15:37;;;;;;;7.57;6.65;;;0.30;99.90;;;;;;5070933;28;19920;-64
2024/01/28 07:18:03;;;;;;;;;;;0.50;99.90;;;;;;5072038;28;20156;-62
2024/01/28 07:20:30;;;;;;;10.85;7.25;;;0.50;99.90;;;;;;5072041;28;19951;-62
2024/01/28 07:22:56;;;;;;;12.82;7.80;;;0.40;99.90;;;;;;5072505;28;20056;-62
2024/01/28 07:25:22;;;;;;;13.25;7.95;;;0.40;99.90;;;;;;5073237;28;20160;-61
2024/01/28 07:27:49;;;;;;;12.85;7.35;;;0.40;99.90;;;;;;5069480;28;20052;-61
2024/01/28 07:30:15;;;;;;;10.38;6.88;;;0.50;99.90;;;;;;5053391;28;20103;-61
2024/01/28 07:32:41;;;;;;;10.93;7.05;;;0.40;99.90;;;;;;5053297;28;20055;-61
2024/01/28 07:35:07;;;;;;;;;;;0.50;99.90;;;;;;5053917;28;20082;-63
2024/01/28 07:37:34;;;;;;;13.55;8.07;;;0.50;99.90;;;;;;5063494;28;19924;-62
2024/01/28 07:40:00;;;;;;;18.67;8.65;;;0.40;99.90;;;;;;5070135;28;20060;-62
2024/01/28 07:42:26;;;;;;;;;;;0.50;99.90;;;;;;5072448;28;20052;-60
2024/01/28 07:44:53;;;;;;;10.60;7.13;;;0.50;99.90;;;;;;5070656;28;19929;-61
2024/01/28 07:47:19;;;;;;;13.52;8.27;;;0.60;99.90;;;;;;5072404;28;20059;-62
2024/01/28 07:49:45;;;;;;;9.50;6.78;;;0.50;99.90;;;;;;5052977;28;20060;-62
2024/01/28 07:52:11;;;;;;;12.73;7.28;;;0.40;99.90;;;;;;5068301;28;20056;-61
2024/01/28 07:54:38;;;;;;;14.48;7.65;;;0.60;99.90;;;;;;5070386;28;20044;-62
2024/01/28 07:57:04;;;;;;;;;;;0.70;99.90;;;;;;5071000;28;20048;-62
2024/01/28 07:59:30;;;;;;;11.88;7.45;;;0.70;99.90;;;;;;5070091;28;20363;-62
2024/01/28 08:01:56;;;;;;;13.82;7.95;;;0.50;99.90;;;;;;5069969;28;20052;-62
2024/01/28 08:04:23;;;;;;;12.38;8.00;;;0.60;99.90;;;;;;5069670;28;20052;-62
2024/01/28 08:06:50;;;;;;;12.23;8.23;;;0.60;99.90;;;;;;5069584;28;20045;-62
2024/01/28 08:09:16;;;;;;;;;;;0.70;99.90;;;;;;5069181;28;20044;-62
2024/01/28 08:11:42;;;;;;;58.67;19.67;;;0.80;99.90;;;;;;5070479;28;19982;-62
2024/01/28 08:14:09;;;;;;;81.25;29.65;;;0.60;99.90;;;;;;5069950;28;20233;-61
2024/01/28 08:16:35;;;;;;;113.07;40.22;;;0.70;99.90;;;;;;5069670;28;20044;-62
2024/01/28 08:19:04;;;;;;;97.55;38.10;;;0.70;99.90;;;;;;5070221;28;20389;-62
2024/01/28 08:21:31;;;;;;;65.68;29.00;;;0.90;99.90;;;;;;5069294;28;20060;-62
2024/01/28 08:23:57;;;;;;;56.65;25.88;;;1.00;99.90;;;;;;5068615;28;20442;-62
2024/01/28 08:26:23;;;;;;;49.45;21.30;;;0.90;99.90;;;;;;5069941;28;20040;-62
2024/01/28 08:28:50;;;;;;;30.80;17.23;;;0.90;99.90;;;;;;5070075;28;20546;-62
2024/01/28 08:31:16;;;;;;;31.45;15.23;;;1.00;99.90;;;;;;5068704;28;20248;-63
2024/01/28 08:33:43;;;;;;;19.20;11.82;;;1.00;99.90;;;;;;5070300;28;20443;-63
2024/01/28 08:36:09;;;;;;;21.60;12.68;;;1.00;99.90;;;;;;5067254;28;20056;-62
2024/01/28 08:38:41;;;;;;;27.60;15.50;;;1.20;99.90;;;;;;5060728;28;20076;-62
2024/01/28 08:41:07;;;;;;;27.00;15.73;;;1.20;99.90;;;;;;5049412;28;20064;-62
2024/01/28 08:43:35;;;;;;;37.85;19.70;;;1.30;99.90;;;;;;5048611;28;20539;-63
2024/01/28 08:46:03;;;;;;;42.63;19.55;;;1.30;99.90;;;;;;5047535;28;20064;-61
2024/01/28 08:48:30;;;;;;;42.55;19.23;;;1.40;99.90;;;;;;5056355;28;20151;-62
2024/01/28 08:50:56;;;;;;;33.05;16.73;;;1.50;99.90;;;;;;5071675;28;20044;-64
2024/01/28 08:53:22;;;;;;;39.50;18.02;;;1.40;99.90;;;;;;5071438;28;20052;-62
2024/01/28 08:55:49;;;;;;;29.13;14.00;;;1.70;99.90;;;;;;5072951;28;20058;-63
2024/01/28 08:58:15;;;;;;;28.33;12.50;;;1.70;99.90;;;;;;5071680;28;20279;-62
2024/01/28 09:00:41;;;;;;;15.63;9.45;;;1.90;99.90;;;;;;5073957;28;20131;-63
2024/01/28 09:03:08;;;;;;;16.92;8.77;;;1.90;99.90;;;;;;5072867;28;20051;-63
2024/01/28 09:05:34;;;;;;;13.13;7.47;;;2.00;99.90;;;;;;5073348;28;20055;-62
2024/01/28 09:08:01;;;;;;;12.98;7.13;;;2.30;99.90;;;;;;5070111;28;20063;-63
2024/01/28 09:10:27;;;;;;;11.13;5.35;;;2.40;99.90;;;;;;5052859;28;20114;-63
2024/01/28 09:12:53;;;;;;;7.35;5.38;;;2.40;99.90;;;;;;5052033;28;20052;-62
2024/01/28 09:15:19;;;;;;;7.18;5.53;;;2.70;99.90;;;;;;5052916;28;20056;-62
2024/01/28 09:17:49;;;;;;;10.90;5.90;;;2.80;99.90;;;;;;5071573;28;20044;-62
2024/01/28 09:20:16;;;;;;;9.63;5.45;;;2.90;99.90;;;;;;5052937;28;20053;-63
2024/01/28 09:22:42;;;;;;;9.55;5.68;;;3.00;99.90;;;;;;5053052;28;20049;-63
2024/01/28 09:25:09;;;;;;;9.52;5.82;;;3.10;99.90;;;;;;5052283;28;20334;-64
2024/01/28 09:27:35;;;;;;;9.07;5.88;;;3.10;99.90;;;;;;5051495;28;20064;-62
2024/01/28 09:30:02;;;;;;;10.00;6.00;;;3.20;99.90;;;;;;5072015;28;20049;-63
2024/01/28 09:32:29;;;;;;;9.73;5.75;;;3.20;99.90;;;;;;5072681;28;20060;-63
2024/01/28 09:34:56;;;;;;;9.60;5.72;;;3.20;99.90;;;;;;5072590;28;20044;-63
2024/01/28 09:37:22;;;;;;;8.30;5.55;;;3.40;99.90;;;;;;5072228;28;20426;-62
2024/01/28 09:39:49;;;;;;;11.52;6.15;;;3.50;99.90;;;;;;5053238;28;20284;-63
2024/01/28 09:42:37;;;;;;;10.45;6.18;;;3.50;99.90;;;;;;5052593;28;20400;-63
2024/01/28 09:45:04;;;;;;;7.85;5.00;;;3.60;99.90;;;;;;5052015;28;20144;-61
2024/01/28 09:47:32;;;;;;;8.77;5.47;;;3.60;99.90;;;;;;5052571;28;20090;-62
2024/01/28 09:50:03;;;;;;;11.88;5.88;;;3.60;99.90;;;;;;5071292;28;20495;-62
2024/01/28 09:52:31;;;;;;;10.60;5.63;;;3.80;99.90;;;;;;5071792;28;20495;-62
2024/01/28 09:54:57;;;;;;;8.23;5.28;;;3.80;99.90;;;;;;5071733;28;20487;-63
2024/01/28 09:57:24;;;;;;;8.77;5.18;;;3.90;99.90;;;;;;5059290;28;20063;-62
2024/01/28 09:59:51;;;;;;;9.60;5.55;;;3.90;99.90;;;;;;5064327;28;20342;-63
2024/01/28 10:02:18;;;;;;;11.30;6.65;;;4.10;99.90;;;;;;5069599;28;20143;-62
2024/01/28 10:04:48;;;;;;;11.00;6.40;;;4.00;99.90;;;;;;5064448;28;20151;-63
2024/01/28 10:07:17;;;;;;;15.32;8.07;;;4.10;99.90;;;;;;5069982;28;20048;-63
2024/01/28 10:09:46;;;;;;;13.10;6.68;;;4.20;99.90;;;;;;5070505;28;20127;-62
2024/01/28 10:12:13;;;;;;;9.30;5.88;;;4.30;99.90;;;;;;5067366;28;20055;-62
2024/01/28 10:14:51;;;;;;;8.60;5.22;;;4.50;99.90;;;;;;5058092;28;20051;-62
2024/01/28 10:17:22;;;;;;;8.07;4.80;;;4.60;99.90;;;;;;5060661;28;20465;-62
2024/01/28 10:19:49;;;;;;;7.63;4.65;;;4.60;99.90;;;;;;5064425;28;20048;-62
2024/01/28 10:22:17;;;;;;;9.05;4.68;;;4.80;99.90;;;;;;5046687;28;20066;-62
2024/01/28 10:24:44;;;;;;;7.68;4.53;;;4.80;99.90;;;;;;5062161;28;20052;-63
2024/01/28 10:27:12;;;;;;;7.25;4.18;;;4.90;99.90;;;;;;5062882;28;20079;-63
2024/01/28 10:29:39;;;;;;;8.23;4.20;;;4.90;99.90;;;;;;5068015;28;20044;-62
2024/01/28 10:32:06;;;;;;;9.02;4.78;;;5.00;99.90;;;;;;5067264;28;20076;-63
2024/01/28 10:34:35;;;;;;;7.35;4.57;;;5.10;99.90;;;;;;5057760;28;20059;-64
2024/01/28 10:37:04;;;;;;;9.45;4.95;;;5.20;99.90;;;;;;5061951;28;20041;-61
2024/01/28 10:39:34;;;;;;;7.45;4.40;;;5.20;99.90;;;;;;5066674;28;20053;-62
2024/01/28 10:42:04;;;;;;;9.05;4.07;;;5.30;99.90;;;;;;5058531;28;20533;-61
2024/01/28 10:44:44;;;;;;;8.95;4.30;;;5.30;99.90;;;;;;5055289;28;20041;-60
2024/01/28 10:47:12;;;;;;;8.10;4.57;;;5.40;99.90;;;;;;5058056;28;20048;-60
2024/01/28 10:49:42;;;;;;;7.68;4.15;;;5.50;99.90;;;;;;5059634;28;20041;-60
2024/01/28 10:52:09;;;;;;;7.53;4.50;;;5.60;99.90;;;;;;5056881;28;20061;-61
2024/01/28 10:54:39;;;;;;;7.55;4.00;;;5.60;99.90;;;;;;5052842;28;20457;-61
2024/01/28 10:57:06;;;;;;;8.40;4.20;;;5.60;99.90;;;;;;5044626;28;20048;-61
2024/01/28 10:59:36;;;;;;;6.78;4.05;;;5.60;99.90;;;;;;5058699;28;20049;-62
2024/01/28 11:02:04;;;;;;;9.13;4.60;;;5.60;99.90;;;;;;5063285;28;20106;-61
2024/01/28 11:04:33;;;;;;;10.07;4.10;;;5.60;99.90;;;;;;5059211;28;20063;-61
2024/01/28 11:06:59;;;;;;;5.82;3.55;;;5.60;99.90;;;;;;5058856;28;20061;-61
2024/01/28 11:09:27;;;;;;;8.57;3.72;;;5.70;99.90;;;;;;5064522;28;20040;-60
2024/01/28 11:11:53;;;;;;;5.97;3.60;;;5.80;99.90;;;;;;5068578;28;20070;-61
2024/01/28 11:14:19;;;;;;;10.52;3.78;;;5.90;99.90;;;;;;5056363;28;20045;-62
2024/01/28 11:16:50;;;;;;;6.72;4.18;;;5.90;99.90;;;;;;5065496;28;20504;-62
2024/01/28 11:19:18;;;;;;;5.90;3.72;;;6.00;99.90;;;;;;5063004;28;20132;-61
2024/01/28 11:21:52;;;;;;;9.02;4.38;;;6.10;99.90;;;;;;5068794;28;20060;-61
2024/01/28 11:24:20;;;;;;;5.63;3.63;;;6.20;99.90;;;;;;5067852;28;20056;-63
2024/01/28 11:26:48;;;;;;;6.07;3.30;;;6.20;99.90;;;;;;5069235;28;20063;-60
2024/01/28 11:29:16;;;;;;;7.72;3.58;;;6.30;99.90;;;;;;5068685;28;20066;-61
2024/01/28 11:31:46;;;;;;;6.97;3.70;;;6.30;99.90;;;;;;5063895;28;20036;-60
2024/01/28 11:34:17;;;;;;;5.20;2.92;;;6.40;99.90;;;;;;5054294;28;20057;-61
2024/01/28 11:36:47;;;;;;;6.53;3.35;;;6.50;99.90;;;;;;5058752;28;20151;-62
2024/01/28 11:39:15;;;;;;;7.15;3.70;;;6.50;99.90;;;;;;5064037;28;20162;-62
2024/01/28 11:41:43;;;;;;;8.23;3.90;;;6.60;99.90;;;;;;5058197;28;20041;-61
2024/01/28 11:44:09;;;;;;;7.63;4.03;;;6.60;99.90;;;;;;5054877;28;20053;-62
2024/01/28 11:46:38;;;;;;;6.65;4.20;;;6.70;99.90;;;;;;5055304;28;20045;-61
2024/01/28 11:49:07;;;;;;;7.43;3.67;;;6.90;99.90;;;;;;5059607;28;20056;-62
2024/01/28 11:51:35;;;;;;;6.70;3.40;;;6.90;99.90;;;;;;5063116;28;20043;-60
2024/01/28 11:54:03;;;;;;;9.52;3.50;;;6.90;99.90;;;;;;5054599;28;20393;-63
2024/01/28 11:56:33;;;;;;;9.32;3.67;;;7.00;99.90;;;;;;5058654;28;20059;-61
2024/01/28 11:59:02;;;;;;;6.18;3.58;;;7.10;99.90;;;;;;5055095;28;20461;-62
2024/01/28 12:01:29;;;;;;;7.68;3.70;;;7.10;99.90;;;;;;5059970;28;20371;-63
2024/01/28 12:03:56;;;;;;;8.10;3.90;;;7.20;99.90;;;;;;5059384;28;20437;-62
2024/01/28 12:06:26;;;;;;;5.78;3.63;;;7.20;99.90;;;;;;5067476;28;20059;-61
2024/01/28 12:08:54;;;;;;;8.18;4.75;;;7.20;99.90;;;;;;5062125;28;20052;-63
2024/01/28 12:11:22;;;;;;;7.88;3.50;;;7.20;99.90;;;;;;5069001;28;20048;-62
2024/01/28 12:13:51;;;;;;;8.30;3.85;;;7.30;99.90;;;;;;5066065;28;20051;-62
2024/01/28 12:16:19;;;;;;;5.38;3.28;;;7.30;99.90;;;;;;5066541;28;20044;-62
2024/01/28 12:18:45;;;;;;;8.65;3.78;;;7.30;99.90;;;;;;5067402;28;20044;-61
2024/01/28 12:21:27;;;;;;;5.97;3.70;;;7.30;99.90;;;;;;5067766;28;20050;-61
2024/01/28 12:23:57;;;;;;;6.03;3.28;;;7.30;99.90;;;;;;5063797;28;20054;-62
2024/01/28 12:26:24;;;;;;;7.90;3.65;;;7.30;99.90;;;;;;5058457;28;20063;-62
2024/01/28 12:28:51;;;;;;;9.38;4.07;;;7.30;99.90;;;;;;5061907;28;20048;-62
2024/01/28 12:31:19;;;;;;;7.10;3.80;;;7.30;99.90;;;;;;5057413;28;20068;-62
2024/01/28 12:33:47;;;;;;;7.13;3.80;;;7.30;99.90;;;;;;5063244;28;20049;-62
2024/01/28 12:36:14;;;;;;;6.95;3.88;;;7.40;99.90;;;;;;5062762;28;20045;-61
2024/01/28 12:38:40;;;;;;;4.68;3.22;;;7.40;99.90;;;;;;5058126;28;20071;-62
2024/01/28 12:41:08;;;;;;;6.38;3.50;;;7.40;99.90;;;;;;5060293;28;20061;-63
2024/01/28 12:43:36;;;;;;;6.38;3.45;;;7.40;99.90;;;;;;5053906;28;20153;-62
2024/01/28 12:46:03;;;;;;;7.85;3.78;;;7.40;99.90;;;;;;5037631;28;20057;-63
2024/01/28 12:48:29;;;;;;;7.63;3.65;;;7.40;99.90;;;;;;5060692;28;20044;-62
2024/01/28 12:50:56;;;;;;;5.68;3.85;;;7.40;99.90;;;;;;5060427;28;20060;-61